Terminal Aerodrome Forecast
Issued by NWS

Current Version | Previous Version | Text Only | Print | Product List | Glossary On
Versions: 1 2 3 4 5 6 7 8 9 10 11 12 13 14 15
000
FTUS42 KRAH 312329 CCA
TAFINT
TAF COR
KINT 312329Z 0100/0124 16005KT P6SM VCSH SCT050 BKN250
     FM010300 16005KT P6SM BKN250
     FM011500 31005KT P6SM SCT040 BKN250 PROB30 0119/0123 4SM -TSRA
      BR BKN050CB=

USA.gov is the U.S. government's official web portal to all federal, state and local government web resources and services.